Time;durP1;ratioP1;P1;durP2;ratioP2;P2;SDS_P1;SDS_P2;PMS_P1;PMS_P2;Temp;Humidity;BMP_temperature;BMP_pressure;BME280_temperature;BME280_humidity;BME280_pressure;Samples;Min_cycle;Max_cycle;Signal;HPM_P1;HPM_P2
2021/12/18 00:00:30;;;;;;;7.63;4.03;;;11.40;88.40;;;;;;10555887;28;20236;-77
2021/12/18 00:05:33;;;;;;;6.20;3.23;;;11.50;89.20;;;;;;10540027;28;20283;-78
2021/12/18 00:10:35;;;;;;;5.00;3.00;;;11.50;88.50;;;;;;10526995;28;20718;-77
2021/12/18 00:15:37;;;;;;;5.87;3.23;;;11.70;87.80;;;;;;10540122;28;20320;-77
2021/12/18 00:20:40;;;;;;;7.40;3.40;;;11.70;87.80;;;;;;10536625;28;20224;-77
2021/12/18 00:25:44;;;;;;;5.47;3.17;;;11.70;87.60;;;;;;10535968;28;20686;-78
2021/12/18 00:30:46;;;;;;;5.83;3.20;;;11.70;87.50;;;;;;10535482;28;20252;-77
2021/12/18 00:35:49;;;;;;;4.43;3.13;;;11.80;87.20;;;;;;10516551;28;20279;-77
2021/12/18 00:41:11;;;;;;;8.17;3.40;;;12.00;85.30;;;;;;10516356;28;20820;-77
2021/12/18 00:46:13;;;;;;;6.33;3.60;;;11.90;86.30;;;;;;10517623;28;20234;-77
2021/12/18 00:51:15;;;;;;;5.53;3.20;;;11.90;86.30;;;;;;10538165;28;20308;-78
2021/12/18 00:56:18;;;;;;;7.77;4.57;;;11.70;86.70;;;;;;10501851;28;20243;-78
2021/12/18 01:01:22;;;;;;;6.43;3.33;;;11.70;84.50;;;;;;10518898;28;20236;-79
2021/12/18 01:06:25;;;;;;;6.87;2.80;;;11.90;86.20;;;;;;10518135;28;20282;-79
2021/12/18 01:11:36;;;;;;;5.90;3.23;;;11.90;85.50;;;;;;10518876;28;20288;-79
2021/12/18 01:27:11;;;;;;;6.90;3.27;;;12.20;84.10;;;;;;10536243;28;20244;-79
2021/12/18 01:32:14;;;;;;;5.57;3.40;;;12.50;83.10;;;;;;10536471;28;20301;-79
2021/12/18 01:37:19;;;;;;;6.87;3.17;;;12.40;82.80;;;;;;10516952;28;20243;-79
2021/12/18 01:52:59;;;;;;;6.47;3.57;;;12.00;83.90;;;;;;10550748;28;20209;-79
2021/12/18 01:58:02;;;;;;;5.83;3.63;;;12.00;83.90;;;;;;10535046;28;20232;-79
2021/12/18 02:03:05;;;;;;;8.47;4.50;;;12.10;83.40;;;;;;10516479;28;20254;-79
2021/12/18 02:08:10;;;;;;;4.83;2.87;;;10.80;83.20;;;;;;10516247;28;20251;-79
2021/12/18 02:13:39;;;;;;;7.27;4.87;;;11.70;84.70;;;;;;10515394;28;20244;-79
2021/12/18 02:24:06;;;;;;;4.63;2.80;;;12.00;83.80;;;;;;10534326;28;20264;-79
2021/12/18 02:29:13;;;;;;;5.43;2.90;;;12.00;83.40;;;;;;10516159;28;20284;-79
2021/12/18 02:34:22;;;;;;;7.27;3.13;;;12.10;83.20;;;;;;10534603;28;20254;-79
2021/12/18 02:39:41;;;;;;;8.30;3.83;;;12.30;82.70;;;;;;10533893;28;20290;-79
2021/12/18 02:44:44;;;;;;;5.70;3.37;;;12.00;80.40;;;;;;10515115;28;20211;-79
2021/12/18 02:49:50;;;;;;;6.37;2.97;;;11.90;83.40;;;;;;10532392;28;20311;-79
2021/12/18 02:54:53;;;;;;;4.97;4.10;;;12.20;81.20;;;;;;10532556;28;20681;-79
2021/12/18 02:59:57;;;;;;;5.00;2.20;;;10.80;86.80;;;;;;10533145;28;20226;-79
2021/12/18 03:05:05;;;;;;;8.97;3.40;;;11.70;83.60;;;;;;10497465;28;20319;-79
2021/12/18 03:25:56;;;;;;;3.97;2.87;;;12.10;83.70;;;;;;10540172;28;20637;-79
2021/12/18 03:30:58;;;;;;;2.90;2.17;;;12.20;82.00;;;;;;10541896;28;20292;-79
2021/12/18 03:36:01;;;;;;;4.73;2.20;;;12.30;81.30;;;;;;10540128;28;20624;-79
2021/12/18 03:41:03;;;;;;;4.90;2.70;;;12.50;81.00;;;;;;10522172;28;20623;-79
2021/12/18 03:46:06;;;;;;;7.03;2.70;;;12.80;79.90;;;;;;10522350;28;20204;-79
2021/12/18 03:51:08;;;;;;;5.73;2.90;;;11.20;84.50;;;;;;10540758;28;20769;-79
2021/12/18 03:56:11;;;;;;;5.90;3.70;;;11.30;85.30;;;;;;10539899;28;20292;-79
2021/12/18 04:01:13;;;;;;;4.97;2.87;;;11.40;82.10;;;;;;10528272;28;20578;-79
2021/12/18 04:06:16;;;;;;;6.20;2.53;;;11.70;84.50;;;;;;10540157;28;20232;-79
2021/12/18 04:11:20;;;;;;;4.17;2.67;;;12.30;78.30;;;;;;10521860;28;20247;-79
2021/12/18 04:16:22;;;;;;;9.40;3.93;;;11.70;81.40;;;;;;10538942;28;20295;-79
2021/12/18 04:21:25;;;;;;;4.03;2.10;;;12.50;80.10;;;;;;10520531;28;20219;-79
2021/12/18 04:26:27;;;;;;;2.70;1.87;;;11.90;82.00;;;;;;10520974;28;20291;-79
2021/12/18 04:31:30;;;;;;;5.30;3.00;;;12.70;80.10;;;;;;10538724;28;20612;-79
2021/12/18 04:36:33;;;;;;;6.13;4.13;;;12.50;76.70;;;;;;10536168;28;20231;-79
2021/12/18 04:41:39;;;;;;;3.90;2.30;;;12.70;79.30;;;;;;10538090;28;20238;-79
2021/12/18 04:46:41;;;;;;;4.70;2.43;;;12.60;76.40;;;;;;10519552;28;20622;-79
2021/12/18 04:51:45;;;;;;;4.07;2.70;;;13.10;76.00;;;;;;10520032;28;20246;-79
2021/12/18 04:56:47;;;;;;;4.27;2.77;;;13.00;77.20;;;;;;10537782;28;20245;-79
2021/12/18 05:01:51;;;;;;;3.73;2.60;;;12.50;79.40;;;;;;10518851;28;20258;-79
2021/12/18 05:06:54;;;;;;;6.87;2.97;;;12.70;78.80;;;;;;10518442;28;20203;-79
2021/12/18 05:11:56;;;;;;;3.33;2.23;;;12.80;78.00;;;;;;10536345;28;20260;-79
2021/12/18 05:16:58;;;;;;;2.43;2.10;;;12.90;78.20;;;;;;10536617;28;20282;-79
2021/12/18 05:22:01;;;;;;;5.27;3.43;;;12.90;77.80;;;;;;10536973;28;20232;-79
2021/12/18 05:27:04;;;;;;;4.80;2.97;;;12.70;78.00;;;;;;10517403;28;20232;-79
2021/12/18 05:32:06;;;;;;;3.33;2.83;;;12.80;78.00;;;;;;10536288;28;20291;-79
2021/12/18 05:42:18;;;;;;;4.57;2.90;;;12.10;78.50;;;;;;10550921;28;20205;-79
2021/12/18 05:47:21;;;;;;;11.97;6.37;;;12.70;78.50;;;;;;10516643;28;20764;-79
2021/12/18 05:52:24;;;;;;;15.40;7.60;;;13.00;76.30;;;;;;10517487;28;20932;-79
2021/12/18 05:57:27;;;;;;;9.80;4.97;;;12.10;77.50;;;;;;10534619;28;20224;-79
2021/12/18 06:02:30;;;;;;;6.53;4.23;;;12.70;77.40;;;;;;10535152;28;20674;-79
2021/12/18 06:07:43;;;;;;;6.70;4.13;;;12.90;77.40;;;;;;10535403;28;20232;-79
2021/12/18 06:12:45;;;;;;;17.87;8.03;;;12.20;79.00;;;;;;10516207;28;20314;-79
2021/12/18 06:17:48;;;;;;;8.27;4.53;;;12.40;74.40;;;;;;10517070;28;20247;-79
2021/12/18 06:22:50;;;;;;;7.30;4.50;;;12.60;78.00;;;;;;10516202;28;20213;-79
2021/12/18 06:27:53;;;;;;;10.73;5.70;;;12.60;77.50;;;;;;10515609;28;20620;-79
2021/12/18 06:32:56;;;;;;;16.07;6.90;;;12.30;78.60;;;;;;10534858;28;20258;-79
2021/12/18 06:37:59;;;;;;;24.30;11.53;;;12.60;77.00;;;;;;10490823;28;20228;-79
2021/12/18 06:43:01;;;;;;;18.20;9.00;;;12.30;76.10;;;;;;10515282;28;20227;-79
2021/12/18 06:48:04;;;;;;;11.43;5.83;;;12.20;78.40;;;;;;10514909;28;20210;-79
2021/12/18 06:53:07;;;;;;;12.23;6.53;;;13.00;77.00;;;;;;10533558;28;20250;-79
2021/12/18 06:58:09;;;;;;;11.13;6.07;;;13.10;75.40;;;;;;10533041;28;20195;-79
2021/12/18 07:03:12;;;;;;;8.47;6.07;;;13.20;75.80;;;;;;10531457;28;20256;-79
2021/12/18 07:08:14;;;;;;;12.90;5.70;;;13.40;75.20;;;;;;10514478;28;20305;-80
2021/12/18 07:13:17;;;;;;;11.20;5.17;;;12.90;76.50;;;;;;10515148;28;20699;-79
2021/12/18 07:18:19;;;;;;;14.07;7.10;;;12.60;76.90;;;;;;10533292;28;20313;-80
2021/12/18 07:23:24;;;;;;;12.43;5.83;;;12.60;72.50;;;;;;10497839;28;20585;-79
2021/12/18 07:28:26;;;;;;;15.17;8.33;;;13.10;76.20;;;;;;10532844;28;20272;-79
2021/12/18 07:33:28;;;;;;;8.10;5.87;;;12.70;74.40;;;;;;10514672;28;20255;-79
2021/12/18 07:38:31;;;;;;;10.47;6.37;;;13.00;74.90;;;;;;10513431;28;20231;-79
2021/12/18 07:43:38;;;;;;;11.50;7.27;;;12.70;76.90;;;;;;10533054;28;20236;-79
2021/12/18 07:48:40;;;;;;;9.53;5.30;;;12.50;76.40;;;;;;10496439;28;20288;-79
2021/12/18 07:53:43;;;;;;;8.57;4.87;;;13.00;75.50;;;;;;10521522;28;20248;-79
2021/12/18 07:58:46;;;;;;;13.03;7.87;;;12.90;76.30;;;;;;10514299;28;20253;-79
2021/12/18 08:03:48;;;;;;;6.67;4.83;;;12.40;75.00;;;;;;10531891;28;20235;-79
2021/12/18 08:08:51;;;;;;;10.67;6.83;;;13.00;75.40;;;;;;10534567;28;20301;-79
2021/12/18 08:13:54;;;;;;;8.80;6.03;;;12.20;74.90;;;;;;10539197;28;20250;-79
2021/12/18 08:18:56;;;;;;;12.03;8.53;;;12.30;75.90;;;;;;10539022;28;20267;-79
2021/12/18 08:23:59;;;;;;;9.57;5.83;;;12.70;72.80;;;;;;10538620;28;20288;-79
2021/12/18 08:29:01;;;;;;;6.10;4.33;;;12.00;76.90;;;;;;10522022;28;20281;-79
2021/12/18 08:34:04;;;;;;;8.13;5.77;;;11.50;80.60;;;;;;10539107;28;20247;-79
2021/12/18 08:39:06;;;;;;;7.73;5.50;;;12.20;76.50;;;;;;10537271;28;20607;-79
2021/12/18 08:44:09;;;;;;;10.03;5.43;;;12.70;75.90;;;;;;10519590;28;20758;-79
2021/12/18 08:49:12;;;;;;;8.97;4.83;;;13.10;75.80;;;;;;10520032;28;20228;-79
2021/12/18 08:54:14;;;;;;;10.40;7.83;;;13.20;75.20;;;;;;10519360;28;20255;-79
2021/12/18 08:59:39;;;;;;;10.27;5.03;;;12.90;71.30;;;;;;10537726;28;20652;-79
2021/12/18 09:04:42;;;;;;;9.23;5.27;;;12.50;76.60;;;;;;10534679;28;20279;-79
2021/12/18 09:09:46;;;;;;;6.73;5.20;;;13.30;74.30;;;;;;10518101;28;20238;-79
2021/12/18 09:14:48;;;;;;;9.93;6.13;;;13.40;73.90;;;;;;10517868;28;20252;-79
2021/12/18 09:19:51;;;;;;;6.63;4.77;;;12.80;75.20;;;;;;10517294;28;20201;-79
2021/12/18 09:24:59;;;;;;;7.37;5.57;;;13.20;74.20;;;;;;10536515;28;20232;-79
2021/12/18 09:30:04;;;;;;;7.60;4.73;;;13.10;74.60;;;;;;10535672;28;20749;-79
2021/12/18 09:35:08;;;;;;;6.83;5.00;;;13.10;74.90;;;;;;10533681;28;20275;-79
2021/12/18 09:40:12;;;;;;;5.13;4.30;;;12.90;75.60;;;;;;10513099;28;20235;-79
2021/12/18 09:45:15;;;;;;;6.97;5.80;;;13.20;74.30;;;;;;10514513;28;20227;-79
2021/12/18 09:50:21;;;;;;;6.73;5.27;;;13.10;74.30;;;;;;10531693;28;20250;-79
2021/12/18 09:55:23;;;;;;;6.20;5.17;;;13.30;73.70;;;;;;10513995;28;20232;-78
2021/12/18 10:00:26;;;;;;;6.10;4.50;;;13.10;74.30;;;;;;10531982;28;20250;-79
2021/12/18 10:05:31;;;;;;;6.40;4.97;;;13.40;73.80;;;;;;10545708;28;20232;-80
2021/12/18 10:10:34;;;;;;;5.60;4.50;;;13.50;73.50;;;;;;10530325;28;20247;-79
2021/12/18 10:15:38;;;;;;;5.70;4.83;;;13.30;73.80;;;;;;10516107;28;20308;-79
2021/12/18 10:20:40;;;;;;;5.23;4.73;;;13.00;73.70;;;;;;10532804;28;20705;-79
2021/12/18 10:25:43;;;;;;;6.53;4.10;;;13.30;73.30;;;;;;10534093;28;20265;-78
2021/12/18 10:30:57;;;;;;;5.17;4.17;;;12.70;75.30;;;;;;10515807;28;20297;-79
2021/12/18 10:36:00;;;;;;;5.03;4.27;;;13.50;73.30;;;;;;10514596;28;20258;-79
2021/12/18 10:41:21;;;;;;;4.37;3.97;;;13.30;74.30;;;;;;10533057;28;20293;-79
2021/12/18 10:46:25;;;;;;;6.07;5.00;;;13.40;73.70;;;;;;10482063;28;20240;-79
2021/12/18 10:51:30;;;;;;;6.40;4.50;;;13.40;72.40;;;;;;10491529;28;20677;-79
2021/12/18 10:56:42;;;;;;;5.57;4.13;;;13.00;74.50;;;;;;10531675;28;20244;-79
2021/12/18 11:01:49;;;;;;;6.43;4.07;;;13.20;74.20;;;;;;10512796;28;20207;-79
2021/12/18 11:06:54;;;;;;;6.43;4.27;;;13.40;73.60;;;;;;10546472;28;20243;-79
2021/12/18 11:17:18;;;;;;;14.93;10.67;;;13.50;73.30;;;;;;10528737;28;20250;-79
2021/12/18 11:22:21;;;;;;;9.83;6.47;;;10.80;75.50;;;;;;10532686;28;20664;-80
2021/12/18 11:27:24;;;;;;;6.83;6.07;;;12.70;73.10;;;;;;9822974;28;10000583;-80
2021/12/18 11:32:33;;;;;;;7.30;5.00;;;12.90;74.10;;;;;;10518599;28;20313;-80
2021/12/18 11:37:41;;;;;;;5.97;4.37;;;13.30;73.90;;;;;;10482752;28;20271;-79
2021/12/18 11:42:44;;;;;;;5.33;4.23;;;12.40;74.30;;;;;;10530499;28;20240;-80
2021/12/18 11:47:58;;;;;;;4.40;3.63;;;12.50;76.30;;;;;;10500387;28;20625;-79
2021/12/18 11:53:09;;;;;;;4.60;4.20;;;13.30;73.80;;;;;;10519880;28;20247;-79
2021/12/18 11:58:14;;;;;;;6.40;4.60;;;13.50;73.40;;;;;;10535844;28;20237;-79
2021/12/18 12:03:31;;;;;;;5.53;4.07;;;13.50;73.60;;;;;;10534551;28;20992;-79
2021/12/18 12:08:39;;;;;;;4.57;3.80;;;13.50;73.40;;;;;;10513437;28;20232;-79
2021/12/18 12:14:01;;;;;;;5.27;4.63;;;13.10;74.80;;;;;;10512271;28;20359;-79
2021/12/18 12:19:06;;;;;;;6.70;5.10;;;13.00;73.90;;;;;;10478097;28;20270;-79
2021/12/18 12:24:09;;;;;;;5.17;3.67;;;13.40;73.20;;;;;;10522212;28;20282;-79
2021/12/18 12:29:13;;;;;;;5.40;4.90;;;13.40;73.60;;;;;;10494958;28;20237;-79
2021/12/18 12:34:24;;;;;;;4.77;3.60;;;12.90;72.20;;;;;;10510435;28;20245;-80
2021/12/18 12:39:56;;;;;;;5.43;4.53;;;13.40;73.60;;;;;;10538399;28;20293;-80
2021/12/18 12:45:08;;;;;;;5.50;3.93;;;13.40;73.60;;;;;;10479442;28;20206;-82
2021/12/18 12:50:13;;;;;;;5.97;4.97;;;13.60;73.00;;;;;;10501085;28;20236;-82
2021/12/18 12:55:19;;;;;;;4.30;3.60;;;13.30;73.50;;;;;;10518973;28;20236;-82
2021/12/18 13:00:22;;;;;;;5.03;3.60;;;13.70;72.80;;;;;;10536620;28;20250;-82
2021/12/18 13:05:27;;;;;;;4.83;3.77;;;13.70;72.90;;;;;;10518485;28;20195;-84
2021/12/18 13:10:35;;;;;;;4.53;4.07;;;13.70;73.00;;;;;;10536948;28;20233;-82
2021/12/18 13:16:03;;;;;;;4.27;3.77;;;13.70;72.90;;;;;;10516563;28;20273;-82
2021/12/18 13:21:14;;;;;;;5.30;3.63;;;13.50;73.30;;;;;;10531884;28;20295;-82
2021/12/18 13:26:47;;;;;;;4.07;3.60;;;13.20;74.30;;;;;;10530066;28;20279;-80
2021/12/18 13:31:58;;;;;;;5.03;3.63;;;13.50;73.70;;;;;;10397804;28;20343;-85
2021/12/18 13:37:06;;;;;;;3.87;3.30;;;13.10;74.50;;;;;;10367134;28;20341;-80
2021/12/18 13:42:11;;;;;;;5.17;3.90;;;13.20;74.70;;;;;;10386280;28;20660;-80
2021/12/18 13:47:16;;;;;;;4.50;3.13;;;13.50;73.90;;;;;;10403321;28;20713;-81
2021/12/18 13:52:33;;;;;;;4.83;4.23;;;13.30;74.20;;;;;;10405387;28;20280;-82
2021/12/18 13:57:35;;;;;;;4.90;3.50;;;13.40;74.00;;;;;;10387559;28;20234;-82
2021/12/18 14:02:38;;;;;;;5.30;3.93;;;13.40;74.10;;;;;;10402075;28;20251;-79
2021/12/18 14:07:43;;;;;;;8.27;7.20;;;13.60;73.50;;;;;;10440517;28;20241;-79
2021/12/18 14:12:47;;;;;;;7.77;6.67;;;13.50;73.60;;;;;;10491717;28;20248;-80
2021/12/18 14:17:49;;;;;;;4.60;3.90;;;12.80;74.10;;;;;;10571622;27;20686;-80
2021/12/18 14:22:53;;;;;;;7.10;3.90;;;13.40;74.50;;;;;;10531842;28;20276;-80
2021/12/18 14:27:56;;;;;;;5.17;4.37;;;13.40;74.60;;;;;;10532012;28;20258;-80
2021/12/18 14:33:14;;;;;;;7.83;4.03;;;13.20;74.80;;;;;;10533505;28;20252;-80
2021/12/18 14:38:19;;;;;;;4.97;4.10;;;13.40;74.40;;;;;;10533795;28;20223;-80
2021/12/18 14:43:25;;;;;;;4.30;3.80;;;13.40;75.00;;;;;;10512724;28;20261;-80
2021/12/18 14:48:34;;;;;;;4.70;3.60;;;13.40;74.70;;;;;;10531505;28;20633;-80
2021/12/18 14:53:36;;;;;;;4.53;3.93;;;13.40;74.50;;;;;;10530213;28;20242;-80
2021/12/18 14:58:39;;;;;;;4.93;3.90;;;13.50;74.30;;;;;;10530880;28;20281;-80
2021/12/18 15:03:48;;;;;;;4.43;3.97;;;13.50;74.30;;;;;;10156660;28;10000125;-79
2021/12/18 15:09:07;;;;;;;4.67;4.00;;;13.60;73.90;;;;;;10501577;28;20247;-80
2021/12/18 15:14:30;;;;;;;6.13;4.23;;;13.60;74.00;;;;;;10502486;28;20838;-79
2021/12/18 15:19:38;;;;;;;4.97;3.97;;;13.70;73.90;;;;;;10506823;28;20232;-79
2021/12/18 15:24:43;;;;;;;4.27;3.67;;;13.70;74.00;;;;;;10506368;28;20243;-78
2021/12/18 15:29:46;;;;;;;6.67;4.07;;;13.30;75.30;;;;;;10507337;28;20236;-79
2021/12/18 15:34:49;;;;;;;6.13;4.23;;;13.50;74.40;;;;;;10506912;28;20242;-79
2021/12/18 15:39:52;;;;;;;8.07;4.07;;;12.80;76.10;;;;;;10522810;28;20288;-79
2021/12/18 15:44:54;;;;;;;10.03;6.77;;;13.40;75.00;;;;;;10524681;28;20252;-79
2021/12/18 15:49:56;;;;;;;6.60;4.20;;;12.70;76.00;;;;;;10525388;28;20232;-79
2021/12/18 15:54:59;;;;;;;6.10;4.40;;;13.30;76.00;;;;;;10523428;28;20288;-78
2021/12/18 16:00:03;;;;;;;6.90;4.93;;;13.30;75.20;;;;;;10522901;28;20252;-79
2021/12/18 16:05:17;;;;;;;4.60;3.83;;;13.30;75.10;;;;;;10515207;28;21036;-79
2021/12/18 16:10:20;;;;;;;4.23;3.40;;;13.60;74.60;;;;;;10528732;28;20339;-80
2021/12/18 16:15:23;;;;;;;3.90;3.50;;;13.10;75.80;;;;;;10524701;28;20312;-80
2021/12/18 16:20:25;;;;;;;3.70;3.20;;;13.50;75.10;;;;;;10509990;28;20285;-79
2021/12/18 16:25:29;;;;;;;4.87;4.37;;;13.10;75.90;;;;;;10507242;28;20284;-79
2021/12/18 16:30:32;;;;;;;4.53;3.87;;;13.30;75.60;;;;;;10531878;28;20655;-79
2021/12/18 16:35:36;;;;;;;4.50;3.97;;;13.30;75.70;;;;;;10534502;28;20307;-81
2021/12/18 16:40:40;;;;;;;4.83;3.87;;;13.20;75.90;;;;;;10485589;28;20301;-80
2021/12/18 16:45:44;;;;;;;4.93;4.07;;;13.10;76.60;;;;;;10495543;28;20243;-79
2021/12/18 16:50:48;;;;;;;5.10;3.20;;;12.90;76.90;;;;;;10524818;28;20243;-79
2021/12/18 16:55:51;;;;;;;7.50;4.00;;;13.40;75.70;;;;;;10513845;28;20255;-80
2021/12/18 17:00:55;;;;;;;4.73;3.53;;;13.30;75.90;;;;;;10498454;28;20294;-80
2021/12/18 17:05:57;;;;;;;4.10;3.50;;;13.20;76.50;;;;;;10492226;28;20748;-81
2021/12/18 17:11:00;;;;;;;6.03;4.00;;;13.20;76.50;;;;;;10498296;28;20245;-80
2021/12/18 17:16:08;;;;;;;4.70;3.43;;;13.30;76.00;;;;;;10477365;28;20770;-80
2021/12/18 17:21:11;;;;;;;3.83;3.03;;;13.00;77.40;;;;;;10499912;28;20284;-80
2021/12/18 17:26:13;;;;;;;4.03;3.20;;;13.40;75.70;;;;;;10504181;28;20269;-80
2021/12/18 17:31:16;;;;;;;5.27;3.60;;;13.40;75.60;;;;;;10525635;28;20232;-80
2021/12/18 17:36:20;;;;;;;3.53;3.23;;;13.20;75.80;;;;;;10534367;28;20243;-82
2021/12/18 17:41:22;;;;;;;4.83;4.17;;;13.20;76.00;;;;;;10513914;28;20278;-82
2021/12/18 17:46:24;;;;;;;4.33;3.73;;;13.30;75.70;;;;;;10527225;28;20671;-81
2021/12/18 17:51:27;;;;;;;3.80;2.80;;;13.60;75.10;;;;;;10522882;28;20226;-81
2021/12/18 17:56:30;;;;;;;4.40;3.23;;;13.20;75.90;;;;;;10485312;28;20258;-80
2021/12/18 18:01:33;;;;;;;4.87;3.70;;;13.20;76.40;;;;;;10478054;28;20245;-80
2021/12/18 18:06:35;;;;;;;4.33;3.20;;;13.20;76.30;;;;;;10493485;28;20306;-80
2021/12/18 18:11:38;;;;;;;3.70;3.00;;;12.40;78.30;;;;;;10496433;28;20296;-81
2021/12/18 18:16:41;;;;;;;3.27;2.97;;;12.90;77.10;;;;;;10515297;28;20263;-80
2021/12/18 18:21:43;;;;;;;3.70;3.20;;;13.10;76.40;;;;;;10535818;28;20667;-80
2021/12/18 18:26:46;;;;;;;3.10;2.77;;;12.80;77.10;;;;;;10513204;28;20244;-80
2021/12/18 18:31:49;;;;;;;3.10;2.77;;;13.10;76.50;;;;;;10533597;28;20229;-80
2021/12/18 18:36:52;;;;;;;5.10;3.87;;;13.20;76.40;;;;;;10533819;28;20262;-80
2021/12/18 18:41:54;;;;;;;3.37;2.30;;;12.40;77.90;;;;;;10533418;28;20328;-80
2021/12/18 18:47:02;;;;;;;4.40;3.00;;;13.30;76.20;;;;;;10533723;28;20224;-80
2021/12/18 18:52:06;;;;;;;3.63;2.80;;;13.50;75.60;;;;;;10531346;28;20273;-80
2021/12/18 18:57:09;;;;;;;3.40;2.83;;;13.40;75.70;;;;;;10514390;28;20240;-80
2021/12/18 19:02:13;;;;;;;2.60;2.37;;;13.20;76.00;;;;;;10510888;28;20678;-80
2021/12/18 19:07:16;;;;;;;4.27;2.90;;;13.40;75.60;;;;;;10524777;28;20248;-80
2021/12/18 19:12:18;;;;;;;3.57;2.97;;;13.30;75.80;;;;;;10512424;28;20321;-82
2021/12/18 19:17:22;;;;;;;3.63;2.87;;;13.00;76.30;;;;;;10497994;28;20258;-81
2021/12/18 19:22:24;;;;;;;3.40;2.73;;;13.30;75.90;;;;;;10502666;28;20239;-80
2021/12/18 19:27:27;;;;;;;4.40;3.30;;;13.50;75.00;;;;;;10510959;28;20244;-80
2021/12/18 19:32:29;;;;;;;3.27;2.63;;;13.00;76.40;;;;;;10509050;28;20295;-81
2021/12/18 19:37:32;;;;;;;3.43;2.40;;;13.40;75.50;;;;;;10525847;28;20677;-80
2021/12/18 19:42:35;;;;;;;4.60;2.83;;;13.20;76.00;;;;;;10505826;28;20281;-81
2021/12/18 19:47:38;;;;;;;5.07;2.53;;;13.40;75.70;;;;;;10503876;28;20244;-81
2021/12/18 19:52:40;;;;;;;3.43;2.73;;;13.40;75.30;;;;;;10497670;28;20256;-79
2021/12/18 19:57:43;;;;;;;3.83;2.70;;;13.30;75.20;;;;;;10525106;28;20226;-79
2021/12/18 20:07:52;;;;;;;3.53;2.83;;;13.20;75.90;;;;;;10531890;28;20261;-79
2021/12/18 20:12:56;;;;;;;2.50;2.17;;;13.10;75.70;;;;;;10489036;28;20309;-79
2021/12/18 20:17:59;;;;;;;3.70;2.30;;;13.10;76.10;;;;;;10508978;28;20259;-79
2021/12/18 20:23:03;;;;;;;3.60;2.77;;;13.30;75.70;;;;;;10501057;28;20601;-80
2021/12/18 20:28:08;;;;;;;2.83;2.17;;;13.30;75.50;;;;;;10479592;28;20285;-80
2021/12/18 20:33:14;;;;;;;2.97;2.57;;;13.40;75.30;;;;;;10490437;28;20241;-80
2021/12/18 20:38:16;;;;;;;3.23;2.37;;;13.40;75.20;;;;;;10527118;28;20235;-83
2021/12/18 20:43:19;;;;;;;3.20;2.40;;;13.40;75.40;;;;;;10532440;28;20236;-82
2021/12/18 20:48:21;;;;;;;4.03;2.40;;;13.40;75.40;;;;;;10532947;28;20227;-83
2021/12/18 20:53:24;;;;;;;3.43;2.77;;;13.50;75.00;;;;;;10532134;28;20655;-81
2021/12/18 20:58:26;;;;;;;3.43;2.97;;;13.20;75.70;;;;;;10506298;28;20246;-81
2021/12/18 21:03:29;;;;;;;3.43;3.13;;;13.10;76.70;;;;;;10516495;28;20232;-80
2021/12/18 21:08:32;;;;;;;3.03;2.40;;;12.70;77.10;;;;;;10514209;28;20675;-80
2021/12/18 21:13:34;;;;;;;2.53;2.33;;;13.20;76.20;;;;;;10491674;28;20259;-80
2021/12/18 21:18:38;;;;;;;2.93;2.40;;;13.40;75.70;;;;;;10534082;28;20260;-80
2021/12/18 21:23:41;;;;;;;2.60;2.07;;;13.30;75.80;;;;;;10506682;28;20671;-79
2021/12/18 21:28:47;;;;;;;3.27;2.30;;;13.30;75.90;;;;;;10514198;28;20231;-80
2021/12/18 21:34:03;;;;;;;2.87;2.30;;;12.80;77.00;;;;;;10534409;28;20247;-80
2021/12/18 21:39:10;;;;;;;4.30;2.50;;;13.10;76.30;;;;;;10516012;28;20285;-80
2021/12/18 21:44:12;;;;;;;2.67;2.03;;;13.40;75.70;;;;;;10181123;28;10000006;-80
2021/12/18 21:49:15;;;;;;;2.93;2.20;;;13.40;75.50;;;;;;10530136;28;20232;-80
2021/12/18 21:54:18;;;;;;;2.17;1.97;;;13.40;75.40;;;;;;10512740;28;20263;-80
2021/12/18 21:59:20;;;;;;;2.33;1.90;;;13.50;75.10;;;;;;10494376;28;20224;-81
2021/12/18 22:04:27;;;;;;;2.50;2.17;;;13.50;75.30;;;;;;10509971;28;20288;-80
2021/12/18 22:09:31;;;;;;;2.70;2.10;;;13.40;75.30;;;;;;10530965;28;20741;-80
2021/12/18 22:14:33;;;;;;;3.23;2.23;;;13.30;75.50;;;;;;10531490;28;20240;-80
2021/12/18 22:19:35;;;;;;;3.10;1.70;;;13.40;75.30;;;;;;10509027;28;20215;-80
2021/12/18 22:24:40;;;;;;;2.57;1.70;;;12.90;76.30;;;;;;10505692;28;20297;-80
2021/12/18 22:29:46;;;;;;;2.00;1.67;;;13.20;75.90;;;;;;10530386;28;20705;-80
2021/12/18 22:34:49;;;;;;;3.30;1.60;;;13.30;75.80;;;;;;10511710;28;20295;-79
2021/12/18 22:39:51;;;;;;;2.20;1.90;;;13.40;75.30;;;;;;10472028;28;20236;-79
2021/12/18 22:44:54;;;;;;;2.87;2.03;;;13.00;76.20;;;;;;10526569;28;20238;-80
2021/12/18 22:49:56;;;;;;;2.67;1.70;;;13.40;75.40;;;;;;10507403;28;20269;-80
2021/12/18 22:54:59;;;;;;;1.93;1.73;;;13.20;75.90;;;;;;10532096;28;20300;-80
2021/12/18 23:00:05;;;;;;;2.57;1.40;;;13.20;76.40;;;;;;10524667;28;20222;-80
2021/12/18 23:05:08;;;;;;;3.10;2.30;;;13.40;75.80;;;;;;10510125;28;20242;-80
2021/12/18 23:10:11;;;;;;;1.60;1.50;;;13.20;76.00;;;;;;10469820;28;20296;-80
2021/12/18 23:15:28;;;;;;;2.53;2.17;;;13.40;76.00;;;;;;10488293;28;20268;-80
2021/12/18 23:20:39;;;;;;;2.00;1.67;;;13.40;75.70;;;;;;10538524;28;20232;-80
2021/12/18 23:25:42;;;;;;;3.30;2.03;;;13.40;75.70;;;;;;10508657;28;20240;-80
2021/12/18 23:30:44;;;;;;;2.10;1.77;;;13.20;76.20;;;;;;10524031;28;20286;-79
2021/12/18 23:35:54;;;;;;;3.50;2.23;;;13.50;75.70;;;;;;10509034;28;20302;-79
2021/12/18 23:41:00;;;;;;;2.80;1.80;;;13.50;75.60;;;;;;10514027;28;20235;-79
2021/12/18 23:51:26;;;;;;;2.80;1.80;;;13.40;76.20;;;;;;10511846;28;20238;-79
2021/12/18 23:56:29;;;;;;;2.57;2.20;;;13.40;76.30;;;;;;10522793;28;20308;-82
